Time,TemperatureF,DewpointF,PressureIn,WindDirection,WindDirectionDegrees,WindSpeedMPH,WindSpeedGustMPH,Humidity,HourlyPrecipIn,Conditions,Clouds,dailyrainin,SoftwareType,DateUTC
2013-07-23 00:00:00,64.4,58.1,29.88,NW,320,0.0,0.0,80,0.00,,,0.00,Wunderground v.1.15,2013-07-23 05:00:00,
2013-07-23 00:05:00,64.3,58.0,29.88,North,10,1.0,2.0,80,0.00,,,0.00,Wunderground v.1.15,2013-07-23 05:05:00,
2013-07-23 00:10:00,64.3,58.0,29.88,NW,307,1.0,1.0,80,0.00,,,0.00,Wunderground v.1.15,2013-07-23 05:10:00,
2013-07-23 00:20:00,64.7,58.0,29.88,NNW,343,1.0,1.0,79,0.00,,,0.00,Wunderground v.1.15,2013-07-23 05:20:00,
2013-07-23 00:30:00,64.9,57.9,29.88,North,349,1.0,1.0,78,0.00,,,0.00,Wunderground v.1.15,2013-07-23 05:30:00,
2013-07-23 00:35:00,64.9,57.9,29.88,NNE,23,1.0,1.0,78,0.00,,,0.00,Wunderground v.1.15,2013-07-23 05:35:00,
2013-07-23 00:40:00,64.8,57.8,29.88,NNW,348,1.0,1.0,78,0.00,,,0.00,Wunderground v.1.15,2013-07-23 05:40:00,
2013-07-23 00:50:00,64.7,58.0,29.88,NNW,345,2.0,2.0,79,0.00,,,0.00,Wunderground v.1.15,2013-07-23 05:50:00,
2013-07-23 00:55:00,64.7,58.0,29.88,North,359,2.0,2.0,79,0.00,,,0.00,Wunderground v.1.15,2013-07-23 05:55:00,
2013-07-23 01:00:00,64.6,58.3,29.88,North,349,1.0,3.0,80,0.00,,,0.00,Wunderground v.1.15,2013-07-23 06:00:00,
2013-07-23 01:05:00,64.5,58.2,29.88,NNE,16,1.0,3.0,80,0.00,,,0.00,Wunderground v.1.15,2013-07-23 06:05:00,
2013-07-23 01:15:00,64.2,57.9,29.88,NW,311,1.0,3.0,80,0.00,,,0.00,Wunderground v.1.15,2013-07-23 06:15:00,
2013-07-23 01:25:00,63.9,58.0,29.89,North,354,1.0,2.0,81,0.00,,,0.00,Wunderground v.1.15,2013-07-23 06:25:00,
2013-07-23 01:30:00,63.9,58.0,29.89,North,359,1.0,3.0,81,0.00,,,0.00,Wunderground v.1.15,2013-07-23 06:30:00,
2013-07-23 01:35:00,63.9,58.0,29.89,NNW,343,2.0,3.0,81,0.00,,,0.00,Wunderground v.1.15,2013-07-23 06:35:00,
2013-07-23 01:45:00,63.6,57.7,29.90,NNW,342,2.0,2.0,81,0.00,,,0.00,Wunderground v.1.15,2013-07-23 06:45:00,
2013-07-23 01:50:00,63.4,57.5,29.89,North,4,1.0,2.0,81,0.00,,,0.00,Wunderground v.1.15,2013-07-23 06:50:00,
2013-07-23 01:55:00,63.3,57.7,29.89,NNE,16,1.0,2.0,82,0.00,,,0.00,Wunderground v.1.15,2013-07-23 06:55:00,
2013-07-23 02:05:00,63.3,57.7,29.89,NNW,341,4.0,4.0,82,0.00,,,0.00,Wunderground v.1.15,2013-07-23 07:05:00,
2013-07-23 02:15:00,63.2,57.6,29.89,NNE,15,2.0,4.0,82,0.00,,,0.00,Wunderground v.1.15,2013-07-23 07:15:00,
2013-07-23 02:20:00,63.0,57.4,29.89,North,354,3.0,4.0,82,0.00,,,0.00,Wunderground v.1.15,2013-07-23 07:20:00,
2013-07-23 02:25:00,62.9,57.3,29.89,North,349,3.0,7.0,82,0.00,,,0.00,Wunderground v.1.15,2013-07-23 07:25:00,
2013-07-23 02:35:00,62.7,57.1,29.89,North,349,4.0,4.0,82,0.00,,,0.00,Wunderground v.1.15,2013-07-23 07:35:00,
2013-07-23 02:40:00,62.7,57.1,29.89,NE,35,4.0,4.0,82,0.00,,,0.00,Wunderground v.1.15,2013-07-23 07:40:00,
2013-07-23 02:45:00,62.6,57.0,29.89,North,11,5.0,6.0,82,0.00,,,0.00,Wunderground v.1.15,2013-07-23 07:45:00,
2013-07-23 02:55:00,62.6,57.0,29.90,North,354,4.0,4.0,82,0.00,,,0.00,Wunderground v.1.15,2013-07-23 07:55:00,
2013-07-23 03:00:00,62.6,57.0,29.90,NNE,16,5.0,5.0,82,0.00,,,0.00,Wunderground v.1.15,2013-07-23 08:00:00,
2013-07-23 03:05:00,62.5,56.9,29.90,North,9,5.0,5.0,82,0.00,,,0.00,Wunderground v.1.15,2013-07-23 08:05:00,
2013-07-23 03:15:00,62.4,56.8,29.90,NNE,25,5.0,6.0,82,0.00,,,0.00,Wunderground v.1.15,2013-07-23 08:15:00,
2013-07-23 03:25:00,62.2,56.6,29.90,North,359,5.0,5.0,82,0.00,,,0.00,Wunderground v.1.15,2013-07-23 08:25:00,
2013-07-23 03:30:00,62.0,56.4,29.90,North,359,5.0,6.0,82,0.00,,,0.00,Wunderground v.1.15,2013-07-23 08:30:00,
2013-07-23 03:40:00,61.7,56.5,29.91,NNE,19,4.0,5.0,83,0.00,,,0.00,Wunderground v.1.15,2013-07-23 08:40:00,
2013-07-23 03:45:00,61.6,56.7,29.91,NNE,12,4.0,6.0,84,0.00,,,0.00,Wunderground v.1.15,2013-07-23 08:45:00,
2013-07-23 03:50:00,61.5,56.6,29.90,NNE,29,5.0,5.0,84,0.00,,,0.00,Wunderground v.1.15,2013-07-23 08:50:00,
2013-07-23 04:00:00,61.2,56.0,29.91,NE,50,5.0,5.0,83,0.00,,,0.00,Wunderground v.1.15,2013-07-23 09:00:00,
2013-07-23 04:05:00,61.1,55.9,29.91,North,10,6.0,8.0,83,0.00,,,0.00,Wunderground v.1.15,2013-07-23 09:05:00,
2013-07-23 04:15:00,60.8,55.6,29.92,NE,41,5.0,5.0,83,0.00,,,0.00,Wunderground v.1.15,2013-07-23 09:15:00,
2013-07-23 04:20:00,60.7,55.5,29.92,NE,37,5.0,5.0,83,0.00,,,0.00,Wunderground v.1.15,2013-07-23 09:20:00,
2013-07-23 04:25:00,60.5,55.6,29.92,NE,37,4.0,5.0,84,0.00,,,0.00,Wunderground v.1.15,2013-07-23 09:25:00,
2013-07-23 04:35:00,60.2,55.3,29.92,NNE,18,3.0,4.0,84,0.00,,,0.00,Wunderground v.1.15,2013-07-23 09:35:00,
2013-07-23 04:40:00,60.1,55.6,29.92,North,354,3.0,6.0,85,0.00,,,0.00,Wunderground v.1.15,2013-07-23 09:40:00,
2013-07-23 04:45:00,59.9,55.4,29.92,North,359,4.0,6.0,85,0.00,,,0.00,Wunderground v.1.15,2013-07-23 09:45:00,
2013-07-23 04:55:00,59.6,55.4,29.93,NNE,12,2.0,3.0,86,0.00,,,0.00,Wunderground v.1.15,2013-07-23 09:55:00,
2013-07-23 05:00:00,59.4,55.2,29.93,NNE,12,2.0,2.0,86,0.00,,,0.00,Wunderground v.1.15,2013-07-23 10:00:00,
2013-07-23 05:05:00,59.4,55.2,29.93,North,4,2.0,3.0,86,0.00,,,0.00,Wunderground v.1.15,2013-07-23 10:05:00,
2013-07-23 05:15:00,59.3,55.4,29.94,North,354,2.0,2.0,87,0.00,,,0.00,Wunderground v.1.15,2013-07-23 10:15:00,
2013-07-23 05:25:00,59.1,55.2,29.94,NNE,14,1.0,1.0,87,0.00,,,0.00,Wunderground v.1.15,2013-07-23 10:25:00,
2013-07-23 05:30:00,59.0,55.1,29.94,NNE,14,0.0,0.0,87,0.00,,,0.00,Wunderground v.1.15,2013-07-23 10:30:00,
2013-07-23 05:35:00,59.0,55.4,29.94,NNW,342,1.0,2.0,88,0.00,,,0.00,Wunderground v.1.15,2013-07-23 10:35:00,
2013-07-23 05:40:00,59.1,55.5,29.94,NNW,334,2.0,2.0,88,0.00,,,0.00,Wunderground v.1.15,2013-07-23 10:40:00,
2013-07-23 05:50:00,59.1,55.5,29.95,NW,326,0.0,0.0,88,0.00,,,0.00,Wunderground v.1.15,2013-07-23 10:50:00,
2013-07-23 05:55:00,59.0,55.4,29.94,NW,326,0.0,0.0,88,0.00,,,0.00,Wunderground v.1.15,2013-07-23 10:55:00,
2013-07-23 06:00:00,58.8,55.6,29.94,NW,326,0.0,0.0,89,0.00,,,0.00,Wunderground v.1.15,2013-07-23 11:00:00,
2013-07-23 06:05:00,58.6,55.4,29.94,North,354,0.0,0.0,89,0.00,,,0.00,Wunderground v.1.15,2013-07-23 11:05:00,
2013-07-23 06:15:00,58.6,55.4,29.93,NE,35,2.0,2.0,89,0.00,,,0.00,Wunderground v.1.15,2013-07-23 11:15:00,
2013-07-23 06:20:00,58.6,55.4,29.94,NNW,345,2.0,2.0,89,0.00,,,0.00,Wunderground v.1.15,2013-07-23 11:20:00,
2013-07-23 06:25:00,58.5,55.3,29.94,NNW,347,2.0,2.0,89,0.00,,,0.00,Wunderground v.1.15,2013-07-23 11:25:00,
2013-07-23 06:30:00,58.6,55.4,29.95,North,354,1.0,1.0,89,0.00,,,0.00,Wunderground v.1.15,2013-07-23 11:30:00,
2013-07-23 06:40:00,58.7,55.5,29.96,NNE,12,1.0,1.0,89,0.00,,,0.00,Wunderground v.1.15,2013-07-23 11:40:00,
2013-07-23 06:45:00,58.8,55.6,29.97,WNW,293,1.0,2.0,89,0.00,,,0.00,Wunderground v.1.15,2013-07-23 11:45:00,
2013-07-23 06:50:00,58.9,55.7,29.97,WNW,290,0.0,0.0,89,0.00,,,0.00,Wunderground v.1.15,2013-07-23 11:50:00,
2013-07-23 07:00:00,59.7,56.5,29.98,NNE,18,1.0,2.0,89,0.00,,,0.00,Wunderground v.1.15,2013-07-23 12:00:00,
2013-07-23 07:05:00,60.4,56.5,29.98,NNE,16,1.0,3.0,87,0.00,,,0.00,Wunderground v.1.15,2013-07-23 12:05:00,
2013-07-23 07:15:00,61.1,56.9,29.99,North,8,3.0,5.0,86,0.00,,,0.00,Wunderground v.1.15,2013-07-23 12:15:00,
2013-07-23 07:20:00,61.4,56.8,29.99,NNE,16,3.0,5.0,85,0.00,,,0.00,Wunderground v.1.15,2013-07-23 12:20:00,
2013-07-23 07:25:00,61.6,56.7,29.99,North,10,4.0,5.0,84,0.00,,,0.00,Wunderground v.1.15,2013-07-23 12:25:00,
2013-07-23 07:35:00,61.8,56.9,29.99,NNE,18,4.0,9.0,84,0.00,,,0.00,Wunderground v.1.15,2013-07-23 12:35:00,
2013-07-23 07:40:00,62.0,57.1,29.99,North,4,4.0,5.0,84,0.00,,,0.00,Wunderground v.1.15,2013-07-23 12:40:00,
2013-07-23 07:45:00,62.2,57.0,29.99,North,4,4.0,6.0,83,0.00,,,0.00,Wunderground v.1.15,2013-07-23 12:45:00,
2013-07-23 07:55:00,62.6,57.4,29.99,NE,44,4.0,4.0,83,0.00,,,0.00,Wunderground v.1.15,2013-07-23 12:55:00,
2013-07-23 08:00:00,62.9,57.3,29.99,NNE,25,3.0,7.0,82,0.00,,,0.00,Wunderground v.1.15,2013-07-23 13:00:00,
2013-07-23 08:05:00,62.8,57.2,29.99,North,10,4.0,7.0,82,0.00,,,0.00,Wunderground v.1.15,2013-07-23 13:05:00,
2013-07-23 08:15:00,63.0,57.1,29.98,NNE,22,4.0,5.0,81,0.00,,,0.00,Wunderground v.1.15,2013-07-23 13:15:00,
2013-07-23 08:25:00,62.8,57.2,29.98,NE,37,6.0,9.0,82,0.00,,,0.00,Wunderground v.1.15,2013-07-23 13:25:00,
2013-07-23 08:30:00,63.1,57.2,29.97,NNE,32,6.0,10.0,81,0.00,,,0.00,Wunderground v.1.15,2013-07-23 13:30:00,
2013-07-23 08:40:00,64.0,58.1,29.98,NNE,25,5.0,6.0,81,0.00,,,0.00,Wunderground v.1.15,2013-07-23 13:40:00,
2013-07-23 08:45:00,64.3,57.6,29.98,North,10,5.0,12.0,79,0.00,,,0.00,Wunderground v.1.15,2013-07-23 13:45:00,
2013-07-23 08:50:00,64.6,57.6,29.98,NNE,33,6.0,6.0,78,0.00,,,0.00,Wunderground v.1.15,2013-07-23 13:50:00,
2013-07-23 08:55:00,64.4,57.4,29.98,North,350,7.0,7.0,78,0.00,,,0.00,Wunderground v.1.15,2013-07-23 13:55:00,
2013-07-23 09:05:00,65.3,57.9,29.99,NNE,14,4.0,6.0,77,0.00,,,0.00,Wunderground v.1.15,2013-07-23 14:05:00,
2013-07-23 09:15:00,65.0,56.9,29.99,NNE,19,6.0,6.0,75,0.00,,,0.00,Wunderground v.1.15,2013-07-23 14:15:00,
2013-07-23 09:20:00,65.4,57.3,29.99,NE,45,5.0,5.0,75,0.00,,,0.00,Wunderground v.1.15,2013-07-23 14:20:00,
2013-07-23 09:25:00,65.8,57.3,29.99,NE,46,5.0,5.0,74,0.00,,,0.00,Wunderground v.1.15,2013-07-23 14:25:00,
2013-07-23 09:35:00,66.5,57.6,29.99,NNE,23,4.0,11.0,73,0.00,,,0.00,Wunderground v.1.15,2013-07-23 14:35:00,
2013-07-23 09:40:00,66.5,57.2,29.99,NNE,21,6.0,6.0,72,0.00,,,0.00,Wunderground v.1.15,2013-07-23 14:40:00,
2013-07-23 09:45:00,66.8,57.9,29.99,North,4,6.0,6.0,73,0.00,,,0.00,Wunderground v.1.15,2013-07-23 14:45:00,
2013-07-23 09:55:00,66.4,57.1,30.00,NE,41,6.0,6.0,72,0.00,,,0.00,Wunderground v.1.15,2013-07-23 14:55:00,
2013-07-23 10:00:00,66.8,57.5,30.00,NE,37,6.0,8.0,72,0.00,,,0.00,Wunderground v.1.15,2013-07-23 15:00:00,
2013-07-23 10:05:00,67.1,57.8,30.00,North,8,6.0,8.0,72,0.00,,,0.00,Wunderground v.1.15,2013-07-23 15:05:00,
2013-07-23 10:15:00,67.4,57.7,30.00,NNE,16,6.0,7.0,71,0.00,,,0.00,Wunderground v.1.15,2013-07-23 15:15:00,
2013-07-23 10:25:00,67.1,57.4,30.00,NE,56,5.0,6.0,71,0.00,,,0.00,Wunderground v.1.15,2013-07-23 15:25:00,
2013-07-23 10:30:00,68.0,57.8,30.00,NNE,29,4.0,6.0,70,0.00,,,0.00,Wunderground v.1.15,2013-07-23 15:30:00,
2013-07-23 10:35:00,68.6,57.6,30.01,NNW,341,5.0,6.0,68,0.00,,,0.00,Wunderground v.1.15,2013-07-23 15:35:00,
2013-07-23 10:45:00,68.1,57.1,30.01,ENE,64,6.0,8.0,68,0.00,,,0.00,Wunderground v.1.15,2013-07-23 15:45:00,
2013-07-23 10:50:00,68.6,57.6,30.01,NW,314,6.0,6.0,68,0.00,,,0.00,Wunderground v.1.15,2013-07-23 15:50:00,
2013-07-23 10:55:00,68.6,57.2,30.01,NNW,342,5.0,6.0,67,0.00,,,0.00,Wunderground v.1.15,2013-07-23 15:55:00,
2013-07-23 11:05:00,69.7,57.8,30.01,North,4,5.0,5.0,66,0.00,,,0.00,Wunderground v.1.15,2013-07-23 16:05:00,
2013-07-23 11:15:00,69.8,57.9,30.01,NE,35,4.0,6.0,66,0.00,,,0.00,Wunderground v.1.15,2013-07-23 16:15:00,
2013-07-23 11:20:00,70.2,57.9,30.01,North,9,4.0,4.0,65,0.00,,,0.00,Wunderground v.1.15,2013-07-23 16:20:00,
2013-07-23 11:25:00,70.0,58.1,30.01,NNE,31,4.0,4.0,66,0.00,,,0.00,Wunderground v.1.15,2013-07-23 16:25:00,
2013-07-23 11:35:00,70.7,58.4,30.01,NNE,27,4.0,6.0,65,0.00,,,0.00,Wunderground v.1.15,2013-07-23 16:35:00,
2013-07-23 11:40:00,71.2,57.5,30.01,North,8,3.0,3.0,62,0.00,,,0.00,Wunderground v.1.15,2013-07-23 16:40:00,
2013-07-23 11:45:00,71.2,57.5,30.01,NNW,335,3.0,4.0,62,0.00,,,0.00,Wunderground v.1.15,2013-07-23 16:45:00,
2013-07-23 11:50:00,70.9,57.2,30.01,NE,34,4.0,4.0,62,0.00,,,0.00,Wunderground v.1.15,2013-07-23 16:50:00,
2013-07-23 12:00:00,71.2,57.5,30.01,NNE,22,5.0,5.0,62,0.00,,,0.00,Wunderground v.1.15,2013-07-23 17:00:00,
2013-07-23 12:05:00,71.2,57.5,30.01,NNE,32,5.0,5.0,62,0.00,,,0.00,Wunderground v.1.15,2013-07-23 17:05:00,
2013-07-23 12:15:00,71.9,56.8,30.01,NNE,16,4.0,6.0,59,0.00,,,0.00,Wunderground v.1.15,2013-07-23 17:15:00,
2013-07-23 12:20:00,71.6,56.5,30.01,NNE,17,5.0,5.0,59,0.00,,,0.00,Wunderground v.1.15,2013-07-23 17:20:00,
2013-07-23 12:30:00,72.3,56.2,30.01,North,354,5.0,6.0,57,0.00,,,0.00,Wunderground v.1.15,2013-07-23 17:30:00,
2013-07-23 12:35:00,72.6,56.5,30.01,NE,56,4.0,7.0,57,0.00,,,0.00,Wunderground v.1.15,2013-07-23 17:35:00,
2013-07-23 12:40:00,71.8,55.7,30.01,NE,41,5.0,5.0,57,0.00,,,0.00,Wunderground v.1.15,2013-07-23 17:40:00,
2013-07-23 12:50:00,71.8,55.3,30.01,NNE,23,7.0,7.0,56,0.00,,,0.00,Wunderground v.1.15,2013-07-23 17:50:00,
2013-07-23 12:55:00,72.0,54.9,30.01,NNE,20,6.0,8.0,55,0.00,,,0.00,Wunderground v.1.15,2013-07-23 17:55:00,
2013-07-23 13:00:00,72.1,55.5,30.01,WNW,300,6.0,6.0,56,0.00,,,0.00,Wunderground v.1.15,2013-07-23 18:00:00,
2013-07-23 13:06:00,72.6,56.0,30.01,North,4,5.0,6.0,56,0.00,,,0.00,Wunderground v.1.15,2013-07-23 18:06:00,
2013-07-23 13:15:00,73.1,56.0,30.01,NNE,32,5.0,5.0,55,0.00,,,0.00,Wunderground v.1.15,2013-07-23 18:15:00,
2013-07-23 13:21:00,73.0,56.4,30.00,NW,304,4.0,4.0,56,0.00,,,0.00,Wunderground v.1.15,2013-07-23 18:21:00,
2013-07-23 13:26:00,73.2,56.1,30.00,North,354,5.0,6.0,55,0.00,,,0.00,Wunderground v.1.15,2013-07-23 18:26:00,
2013-07-23 13:35:00,73.1,56.0,30.00,NNE,31,5.0,9.0,55,0.00,,,0.00,Wunderground v.1.15,2013-07-23 18:35:00,
2013-07-23 13:40:00,73.2,55.6,30.01,ENE,77,5.0,5.0,54,0.00,,,0.00,Wunderground v.1.15,2013-07-23 18:40:00,
2013-07-23 13:50:00,73.0,53.3,30.00,NE,40,5.0,8.0,50,0.00,,,0.00,Wunderground v.1.15,2013-07-23 18:50:00,
2013-07-23 14:00:00,73.1,53.9,30.01,NNE,29,6.0,6.0,51,0.00,,,0.00,Wunderground v.1.15,2013-07-23 19:00:00,
2013-07-23 14:05:00,72.8,55.2,30.01,NNE,13,7.0,8.0,54,0.00,,,0.00,Wunderground v.1.15,2013-07-23 19:05:00,
2013-07-23 14:15:00,73.6,55.9,30.01,NE,49,5.0,8.0,54,0.00,,,0.00,Wunderground v.1.15,2013-07-23 19:15:00,
2013-07-23 14:25:00,73.9,57.2,30.01,NE,38,3.0,4.0,56,0.00,,,0.00,Wunderground v.1.15,2013-07-23 19:25:00,
2013-07-23 14:30:00,73.6,55.4,30.01,NNE,14,4.0,4.0,53,0.00,,,0.00,Wunderground v.1.15,2013-07-23 19:30:00,
2013-07-23 14:35:00,73.3,56.2,30.01,NNE,23,4.0,8.0,55,0.00,,,0.00,Wunderground v.1.15,2013-07-23 19:35:00,
2013-07-23 14:45:00,73.1,55.5,30.01,North,4,6.0,6.0,54,0.00,,,0.00,Wunderground v.1.15,2013-07-23 19:45:00,
2013-07-23 14:50:00,73.3,55.6,30.00,North,9,5.0,5.0,54,0.00,,,0.00,Wunderground v.1.15,2013-07-23 19:50:00,
2013-07-23 14:55:00,74.0,55.3,30.01,NNE,14,5.0,9.0,52,0.00,,,0.00,Wunderground v.1.15,2013-07-23 19:55:00,
2013-07-23 15:05:00,74.5,55.7,30.01,ENE,65,5.0,5.0,52,0.00,,,0.00,Wunderground v.1.15,2013-07-23 20:05:00,
2013-07-23 15:15:00,74.3,56.1,30.01,NNE,12,5.0,5.0,53,0.00,,,0.00,Wunderground v.1.15,2013-07-23 20:15:00,
2013-07-23 15:20:00,74.2,54.4,30.01,NNE,31,5.0,8.0,50,0.00,,,0.00,Wunderground v.1.15,2013-07-23 20:20:00,
2013-07-23 15:25:00,74.1,56.4,30.00,NE,53,4.0,8.0,54,0.00,,,0.00,Wunderground v.1.15,2013-07-23 20:25:00,
2013-07-23 15:30:00,74.0,55.3,30.00,ENE,61,4.0,4.0,52,0.00,,,0.00,Wunderground v.1.15,2013-07-23 20:30:00,
2013-07-23 15:40:00,75.3,55.4,30.00,ENE,59,2.0,4.0,50,0.00,,,0.00,Wunderground v.1.15,2013-07-23 20:40:00,
2013-07-23 15:55:00,74.8,53.8,30.00,NNE,14,5.0,6.0,48,0.00,,,0.00,Wunderground v.1.15,2013-07-23 20:55:00,
2013-07-23 16:05:00,74.4,54.0,30.00,ENE,72,4.0,7.0,49,0.00,,,0.00,Wunderground v.1.15,2013-07-23 21:05:00,
2013-07-23 16:15:00,74.7,53.7,30.00,NE,40,4.0,6.0,48,0.00,,,0.00,Wunderground v.1.15,2013-07-23 21:15:00,
2013-07-23 16:20:00,74.4,51.7,30.00,ENE,76,4.0,4.0,45,0.00,,,0.00,Wunderground v.1.15,2013-07-23 21:20:00,
2013-07-23 16:30:00,74.6,53.0,30.00,North,359,3.0,3.0,47,0.00,,,0.00,Wunderground v.1.15,2013-07-23 21:30:00,
2013-07-23 16:35:00,75.3,54.3,30.00,North,9,2.0,3.0,48,0.00,,,0.00,Wunderground v.1.15,2013-07-23 21:35:00,
2013-07-23 16:40:00,75.1,54.1,30.00,NNE,16,3.0,6.0,48,0.00,,,0.00,Wunderground v.1.15,2013-07-23 21:40:00,
2013-07-23 16:45:00,74.8,54.9,30.00,North,359,4.0,6.0,50,0.00,,,0.00,Wunderground v.1.15,2013-07-23 21:45:00,
2013-07-23 16:55:00,74.8,54.9,30.00,ENE,59,3.0,7.0,50,0.00,,,0.00,Wunderground v.1.15,2013-07-23 21:55:00,
2013-07-23 17:00:00,74.8,54.4,30.00,ENE,74,3.0,3.0,49,0.00,,,0.00,Wunderground v.1.15,2013-07-23 22:00:00,
2013-07-23 17:10:00,75.3,54.8,30.00,NNE,25,2.0,5.0,49,0.00,,,0.00,Wunderground v.1.15,2013-07-23 22:10:00,
2013-07-23 17:15:00,74.6,54.7,29.99,NNE,28,4.0,5.0,50,0.00,,,0.00,Wunderground v.1.15,2013-07-23 22:15:00,
2013-07-23 17:20:00,74.5,54.1,30.00,NE,55,4.0,4.0,49,0.00,,,0.00,Wunderground v.1.15,2013-07-23 22:20:00,
2013-07-23 17:30:00,74.5,55.2,30.00,NE,36,3.0,5.0,51,0.00,,,0.00,Wunderground v.1.15,2013-07-23 22:30:00,
2013-07-23 17:40:00,73.9,54.6,29.99,NE,45,5.0,5.0,51,0.00,,,0.00,Wunderground v.1.15,2013-07-23 22:40:00,
2013-07-23 17:45:00,73.7,55.5,29.99,NNE,31,4.0,5.0,53,0.00,,,0.00,Wunderground v.1.15,2013-07-23 22:45:00,
2013-07-23 17:50:00,74.2,54.9,30.00,NE,50,3.0,3.0,51,0.00,,,0.00,Wunderground v.1.15,2013-07-23 22:50:00,
2013-07-23 18:00:00,74.6,54.2,30.00,ENE,61,3.0,5.0,49,0.00,,,0.00,Wunderground v.1.15,2013-07-23 23:00:00,
2013-07-23 18:05:00,74.6,55.3,30.00,NNW,343,4.0,8.0,51,0.00,,,0.00,Wunderground v.1.15,2013-07-23 23:05:00,
2013-07-23 18:15:00,74.2,54.9,30.00,NE,56,5.0,5.0,51,0.00,,,0.00,Wunderground v.1.15,2013-07-23 23:15:00,
2013-07-23 18:20:00,74.5,55.7,30.00,ENE,68,4.0,5.0,52,0.00,,,0.00,Wunderground v.1.15,2013-07-23 23:20:00,
2013-07-23 18:30:00,74.1,55.3,30.00,East,81,5.0,6.0,52,0.00,,,0.00,Wunderground v.1.15,2013-07-23 23:30:00,
2013-07-23 18:40:00,73.8,55.1,29.99,NNE,33,3.0,4.0,52,0.00,,,0.00,Wunderground v.1.15,2013-07-23 23:40:00,
2013-07-23 18:45:00,73.9,55.2,29.99,North,354,3.0,4.0,52,0.00,,,0.00,Wunderground v.1.15,2013-07-23 23:45:00,
2013-07-23 19:00:00,73.7,54.4,29.99,NNE,33,5.0,5.0,51,0.00,,,0.00,Wunderground v.1.15,2013-07-24 00:00:00,
2013-07-23 19:05:00,73.9,55.7,29.99,North,4,3.0,5.0,53,0.00,,,0.00,Wunderground v.1.15,2013-07-24 00:05:00,
2013-07-23 19:15:00,73.9,55.7,30.00,NE,53,2.0,3.0,53,0.00,,,0.00,Wunderground v.1.15,2013-07-24 00:15:00,
2013-07-23 19:25:00,73.3,54.6,30.00,ENE,76,3.0,3.0,52,0.00,,,0.00,Wunderground v.1.15,2013-07-24 00:25:00,
2013-07-23 19:30:00,73.1,55.5,30.00,NNE,23,4.0,5.0,54,0.00,,,0.00,Wunderground v.1.15,2013-07-24 00:30:00,
2013-07-23 19:35:00,73.1,55.5,30.00,NE,34,3.0,5.0,54,0.00,,,0.00,Wunderground v.1.15,2013-07-24 00:35:00,
2013-07-23 19:45:00,73.2,55.6,30.00,North,8,2.0,2.0,54,0.00,,,0.00,Wunderground v.1.15,2013-07-24 00:45:00,
2013-07-23 19:50:00,73.0,55.4,30.00,NNE,27,3.0,3.0,54,0.00,,,0.00,Wunderground v.1.15,2013-07-24 00:50:00,
2013-07-23 20:00:00,72.6,55.0,30.00,ENE,57,3.0,3.0,54,0.00,,,0.00,Wunderground v.1.15,2013-07-24 01:00:00,
2013-07-23 20:05:00,72.3,55.7,30.00,ENE,70,2.0,3.0,56,0.00,,,0.00,Wunderground v.1.15,2013-07-24 01:05:00,
2013-07-23 20:15:00,72.0,55.4,30.00,NE,41,2.0,2.0,56,0.00,,,0.00,Wunderground v.1.15,2013-07-24 01:15:00,
2013-07-23 20:20:00,71.9,55.3,30.00,ENE,57,2.0,2.0,56,0.00,,,0.00,Wunderground v.1.15,2013-07-24 01:20:00,
2013-07-23 20:30:00,71.6,55.6,30.00,NE,50,1.0,2.0,57,0.00,,,0.00,Wunderground v.1.15,2013-07-24 01:30:00,
2013-07-23 20:35:00,71.4,55.4,30.01,ENE,64,1.0,2.0,57,0.00,,,0.00,Wunderground v.1.15,2013-07-24 01:35:00,
2013-07-23 20:40:00,71.2,55.2,30.01,East,86,1.0,2.0,57,0.00,,,0.00,Wunderground v.1.15,2013-07-24 01:40:00,
2013-07-23 20:55:00,70.4,56.3,30.00,ENE,73,1.0,1.0,61,0.00,,,0.00,Wunderground v.1.15,2013-07-24 01:55:00,
2013-07-23 21:05:00,69.9,56.3,30.01,East,81,1.0,1.0,62,0.00,,,0.00,Wunderground v.1.15,2013-07-24 02:05:00,
2013-07-23 21:15:00,69.5,56.3,30.01,East,81,0.0,0.0,63,0.00,,,0.00,Wunderground v.1.15,2013-07-24 02:15:00,
2013-07-23 21:20:00,69.2,56.5,30.01,East,81,0.0,0.0,64,0.00,,,0.00,Wunderground v.1.15,2013-07-24 02:20:00,
2013-07-23 21:30:00,68.8,56.6,30.01,East,81,0.0,0.0,65,0.00,,,0.00,Wunderground v.1.15,2013-07-24 02:30:00,
2013-07-23 21:35:00,68.5,56.7,30.01,East,81,0.0,0.0,66,0.00,,,0.00,Wunderground v.1.15,2013-07-24 02:35:00,
2013-07-23 21:45:00,68.0,57.0,30.01,East,81,0.0,0.0,68,0.00,,,0.00,Wunderground v.1.15,2013-07-24 02:45:00,
2013-07-23 21:55:00,67.6,57.1,30.02,East,81,0.0,0.0,69,0.00,,,0.00,Wunderground v.1.15,2013-07-24 02:55:00,
2013-07-23 22:00:00,67.3,56.8,30.02,East,81,0.0,0.0,69,0.00,,,0.00,Wunderground v.1.15,2013-07-24 03:00:00,
2013-07-23 22:05:00,67.0,56.9,30.02,East,81,0.0,0.0,70,0.00,,,0.00,Wunderground v.1.15,2013-07-24 03:05:00,
2013-07-23 22:15:00,66.7,56.6,30.02,East,81,0.0,0.0,70,0.00,,,0.00,Wunderground v.1.15,2013-07-24 03:15:00,
2013-07-23 22:20:00,66.5,56.8,30.02,East,81,0.0,0.0,71,0.00,,,0.00,Wunderground v.1.15,2013-07-24 03:20:00,
2013-07-23 22:25:00,66.4,56.7,30.03,East,81,0.0,0.0,71,0.00,,,0.00,Wunderground v.1.15,2013-07-24 03:25:00,
2013-07-23 22:30:00,66.2,56.9,30.03,East,81,0.0,0.0,72,0.00,,,0.00,Wunderground v.1.15,2013-07-24 03:30:00,
2013-07-23 22:45:00,65.8,56.9,30.03,East,81,0.0,0.0,73,0.00,,,0.00,Wunderground v.1.15,2013-07-24 03:45:00,
2013-07-23 22:50:00,65.5,56.6,30.03,East,81,0.0,0.0,73,0.00,,,0.00,Wunderground v.1.15,2013-07-24 03:50:00,
2013-07-23 23:05:00,64.8,56.3,30.03,East,81,0.0,0.0,74,0.00,,,0.00,Wunderground v.1.15,2013-07-24 04:05:00,
2013-07-23 23:10:00,64.4,56.3,30.03,East,81,0.0,0.0,75,0.00,,,0.00,Wunderground v.1.15,2013-07-24 04:10:00,
2013-07-23 23:15:00,64.1,56.7,30.03,East,81,0.0,0.0,77,0.00,,,0.00,Wunderground v.1.15,2013-07-24 04:15:00,
2013-07-23 23:20:00,63.8,56.8,30.03,East,81,0.0,0.0,78,0.00,,,0.00,Wunderground v.1.15,2013-07-24 04:20:00,
2013-07-23 23:25:00,63.5,56.9,30.03,East,81,0.0,0.0,79,0.00,,,0.00,Wunderground v.1.15,2013-07-24 04:25:00,
2013-07-23 23:30:00,63.3,56.7,30.03,East,81,0.0,0.0,79,0.00,,,0.00,Wunderground v.1.15,2013-07-24 04:30:00,
2013-07-23 23:35:00,63.1,56.5,30.03,East,81,0.0,0.0,79,0.00,,,0.00,Wunderground v.1.15,2013-07-24 04:35:00,
2013-07-23 23:45:00,62.6,56.7,30.03,East,81,0.0,0.0,81,0.00,,,0.00,Wunderground v.1.15,2013-07-24 04:45:00,
2013-07-23 23:50:00,62.3,56.4,30.03,East,81,0.0,0.0,81,0.00,,,0.00,Wunderground v.1.15,2013-07-24 04:50:00,
2013-07-23 23:55:00,62.1,56.5,30.03,East,81,0.0,0.0,82,0.00,,,0.00,Wunderground v.1.15,2013-07-24 04:55:00,